sensor_id;sensor_type;location;lat;lon;timestamp;P1;durP1;ratioP1;P2;durP2;ratioP2
4957;SDS011;2494;51.872;9.688;2023-04-06T00:01:16;4.10;;;3.30;;
4957;SDS011;2494;51.872;9.688;2023-04-06T00:04:01;4.77;;;3.87;;
4957;SDS011;2494;51.872;9.688;2023-04-06T00:06:46;4.13;;;3.83;;
4957;SDS011;2494;51.872;9.688;2023-04-06T00:09:31;5.10;;;4.53;;
4957;SDS011;2494;51.872;9.688;2023-04-06T00:12:16;4.60;;;3.20;;
4957;SDS011;2494;51.872;9.688;2023-04-06T00:15:02;4.67;;;4.23;;
4957;SDS011;2494;51.872;9.688;2023-04-06T00:17:49;4.37;;;3.97;;
4957;SDS011;2494;51.872;9.688;2023-04-06T00:20:34;8.90;;;4.13;;
4957;SDS011;2494;51.872;9.688;2023-04-06T00:23:19;6.17;;;4.03;;
4957;SDS011;2494;51.872;9.688;2023-04-06T00:26:04;3.30;;;3.10;;
4957;SDS011;2494;51.872;9.688;2023-04-06T00:28:49;4.37;;;4.00;;
4957;SDS011;2494;51.872;9.688;2023-04-06T00:31:37;4.90;;;4.03;;
4957;SDS011;2494;51.872;9.688;2023-04-06T00:34:22;5.50;;;3.90;;
4957;SDS011;2494;51.872;9.688;2023-04-06T00:37:07;5.10;;;4.70;;
4957;SDS011;2494;51.872;9.688;2023-04-06T00:39:52;5.77;;;3.90;;
4957;SDS011;2494;51.872;9.688;2023-04-06T00:42:37;8.13;;;4.70;;
4957;SDS011;2494;51.872;9.688;2023-04-06T00:45:22;5.40;;;5.00;;
4957;SDS011;2494;51.872;9.688;2023-04-06T00:48:09;4.50;;;4.10;;
4957;SDS011;2494;51.872;9.688;2023-04-06T00:50:54;4.73;;;4.33;;
4957;SDS011;2494;51.872;9.688;2023-04-06T00:53:39;4.43;;;4.13;;
4957;SDS011;2494;51.872;9.688;2023-04-06T00:56:24;6.90;;;4.80;;
4957;SDS011;2494;51.872;9.688;2023-04-06T00:59:10;5.90;;;4.20;;
4957;SDS011;2494;51.872;9.688;2023-04-06T01:01:55;6.53;;;4.73;;
4957;SDS011;2494;51.872;9.688;2023-04-06T01:04:41;5.83;;;4.40;;
4957;SDS011;2494;51.872;9.688;2023-04-06T01:07:26;4.20;;;3.90;;
4957;SDS011;2494;51.872;9.688;2023-04-06T01:10:11;5.17;;;4.77;;
4957;SDS011;2494;51.872;9.688;2023-04-06T01:13:06;5.07;;;4.63;;
4957;SDS011;2494;51.872;9.688;2023-04-06T01:15:52;4.47;;;4.07;;
4957;SDS011;2494;51.872;9.688;2023-04-06T01:18:37;5.93;;;4.67;;
4957;SDS011;2494;51.872;9.688;2023-04-06T01:21:24;7.37;;;4.70;;
4957;SDS011;2494;51.872;9.688;2023-04-06T01:24:10;5.60;;;5.20;;
4957;SDS011;2494;51.872;9.688;2023-04-06T01:26:55;4.30;;;3.90;;
4957;SDS011;2494;51.872;9.688;2023-04-06T01:29:41;4.93;;;4.53;;
4957;SDS011;2494;51.872;9.688;2023-04-06T01:32:26;6.50;;;5.33;;
4957;SDS011;2494;51.872;9.688;2023-04-06T01:35:11;6.37;;;5.10;;
4957;SDS011;2494;51.872;9.688;2023-04-06T01:37:56;5.50;;;5.00;;
4957;SDS011;2494;51.872;9.688;2023-04-06T01:40:42;5.47;;;4.93;;
4957;SDS011;2494;51.872;9.688;2023-04-06T01:43:28;5.60;;;5.10;;
4957;SDS011;2494;51.872;9.688;2023-04-06T01:46:13;8.03;;;5.77;;
4957;SDS011;2494;51.872;9.688;2023-04-06T01:48:58;9.20;;;5.57;;
4957;SDS011;2494;51.872;9.688;2023-04-06T01:51:44;5.27;;;4.80;;
4957;SDS011;2494;51.872;9.688;2023-04-06T01:54:28;7.03;;;5.40;;
4957;SDS011;2494;51.872;9.688;2023-04-06T01:57:15;5.70;;;5.20;;
4957;SDS011;2494;51.872;9.688;2023-04-06T02:00:00;7.87;;;5.00;;
4957;SDS011;2494;51.872;9.688;2023-04-06T02:02:45;6.53;;;5.50;;
4957;SDS011;2494;51.872;9.688;2023-04-06T02:05:30;9.60;;;5.90;;
4957;SDS011;2494;51.872;9.688;2023-04-06T02:08:16;5.57;;;4.83;;
4957;SDS011;2494;51.872;9.688;2023-04-06T02:11:01;5.20;;;4.70;;
4957;SDS011;2494;51.872;9.688;2023-04-06T02:13:48;8.17;;;7.33;;
4957;SDS011;2494;51.872;9.688;2023-04-06T02:16:33;6.00;;;5.40;;
4957;SDS011;2494;51.872;9.688;2023-04-06T02:19:18;6.63;;;5.33;;
4957;SDS011;2494;51.872;9.688;2023-04-06T02:22:03;8.03;;;5.40;;
4957;SDS011;2494;51.872;9.688;2023-04-06T02:24:48;6.10;;;5.20;;
4957;SDS011;2494;51.872;9.688;2023-04-06T02:27:33;7.90;;;7.13;;
4957;SDS011;2494;51.872;9.688;2023-04-06T02:30:19;6.37;;;5.87;;
4957;SDS011;2494;51.872;9.688;2023-04-06T02:33:04;6.23;;;5.73;;
4957;SDS011;2494;51.872;9.688;2023-04-06T02:35:49;6.23;;;5.50;;
4957;SDS011;2494;51.872;9.688;2023-04-06T02:38:34;11.57;;;6.10;;
4957;SDS011;2494;51.872;9.688;2023-04-06T02:41:19;5.10;;;4.60;;
4957;SDS011;2494;51.872;9.688;2023-04-06T02:44:05;7.27;;;6.37;;
4957;SDS011;2494;51.872;9.688;2023-04-06T02:46:52;5.77;;;5.23;;
4957;SDS011;2494;51.872;9.688;2023-04-06T02:49:37;8.30;;;6.83;;
4957;SDS011;2494;51.872;9.688;2023-04-06T02:52:22;7.70;;;5.20;;
4957;SDS011;2494;51.872;9.688;2023-04-06T02:55:07;5.87;;;5.33;;
4957;SDS011;2494;51.872;9.688;2023-04-06T02:57:52;7.13;;;6.37;;
4957;SDS011;2494;51.872;9.688;2023-04-06T03:00:37;6.40;;;5.80;;
4957;SDS011;2494;51.872;9.688;2023-04-06T03:03:23;8.00;;;5.43;;
4957;SDS011;2494;51.872;9.688;2023-04-06T03:06:09;5.93;;;5.43;;
4957;SDS011;2494;51.872;9.688;2023-04-06T03:08:54;6.80;;;6.10;;
4957;SDS011;2494;51.872;9.688;2023-04-06T03:11:39;6.77;;;6.03;;
4957;SDS011;2494;51.872;9.688;2023-04-06T03:14:24;6.50;;;5.50;;
4957;SDS011;2494;51.872;9.688;2023-04-06T03:17:09;7.13;;;5.67;;
4957;SDS011;2494;51.872;9.688;2023-04-06T03:19:55;5.93;;;5.33;;
4957;SDS011;2494;51.872;9.688;2023-04-06T03:22:40;6.00;;;5.20;;
4957;SDS011;2494;51.872;9.688;2023-04-06T03:25:25;6.50;;;5.70;;
4957;SDS011;2494;51.872;9.688;2023-04-06T03:28:10;6.70;;;5.47;;
4957;SDS011;2494;51.872;9.688;2023-04-06T03:30:55;6.37;;;5.77;;
4957;SDS011;2494;51.872;9.688;2023-04-06T03:33:40;6.47;;;5.93;;
4957;SDS011;2494;51.872;9.688;2023-04-06T03:36:26;6.77;;;5.83;;
4957;SDS011;2494;51.872;9.688;2023-04-06T03:39:11;5.57;;;5.07;;
4957;SDS011;2494;51.872;9.688;2023-04-06T03:41:56;8.10;;;5.23;;
4957;SDS011;2494;51.872;9.688;2023-04-06T03:44:41;6.80;;;5.27;;
4957;SDS011;2494;51.872;9.688;2023-04-06T03:47:26;7.10;;;6.50;;
4957;SDS011;2494;51.872;9.688;2023-04-06T03:50:11;7.33;;;6.70;;
4957;SDS011;2494;51.872;9.688;2023-04-06T03:52:58;6.90;;;6.30;;
4957;SDS011;2494;51.872;9.688;2023-04-06T03:55:42;7.23;;;6.53;;
4957;SDS011;2494;51.872;9.688;2023-04-06T03:58:27;8.57;;;7.30;;
4957;SDS011;2494;51.872;9.688;2023-04-06T04:01:12;9.10;;;7.17;;
4957;SDS011;2494;51.872;9.688;2023-04-06T04:03:57;8.00;;;5.80;;
4957;SDS011;2494;51.872;9.688;2023-04-06T04:06:42;8.20;;;6.67;;
4957;SDS011;2494;51.872;9.688;2023-04-06T04:09:29;9.43;;;6.10;;
4957;SDS011;2494;51.872;9.688;2023-04-06T04:12:14;7.73;;;6.40;;
4957;SDS011;2494;51.872;9.688;2023-04-06T04:15:00;7.50;;;5.73;;
4957;SDS011;2494;51.872;9.688;2023-04-06T04:17:46;8.63;;;6.40;;
4957;SDS011;2494;51.872;9.688;2023-04-06T04:20:32;6.30;;;5.70;;
4957;SDS011;2494;51.872;9.688;2023-04-06T04:23:17;7.10;;;6.50;;
4957;SDS011;2494;51.872;9.688;2023-04-06T04:26:03;6.30;;;5.63;;
4957;SDS011;2494;51.872;9.688;2023-04-06T04:28:49;7.80;;;5.43;;
4957;SDS011;2494;51.872;9.688;2023-04-06T04:31:34;6.43;;;5.83;;
4957;SDS011;2494;51.872;9.688;2023-04-06T04:34:19;6.90;;;6.20;;
4957;SDS011;2494;51.872;9.688;2023-04-06T04:37:09;7.00;;;6.33;;
4957;SDS011;2494;51.872;9.688;2023-04-06T04:39:54;5.73;;;5.13;;
4957;SDS011;2494;51.872;9.688;2023-04-06T04:42:41;8.13;;;7.43;;
4957;SDS011;2494;51.872;9.688;2023-04-06T04:45:26;9.63;;;6.07;;
4957;SDS011;2494;51.872;9.688;2023-04-06T04:48:11;8.00;;;5.90;;
4957;SDS011;2494;51.872;9.688;2023-04-06T04:50:56;6.50;;;5.90;;
4957;SDS011;2494;51.872;9.688;2023-04-06T04:53:41;6.20;;;5.70;;
4957;SDS011;2494;51.872;9.688;2023-04-06T04:56:26;7.40;;;6.70;;
4957;SDS011;2494;51.872;9.688;2023-04-06T04:59:13;8.17;;;7.43;;
4957;SDS011;2494;51.872;9.688;2023-04-06T05:01:58;10.10;;;6.80;;
4957;SDS011;2494;51.872;9.688;2023-04-06T05:04:43;7.43;;;6.70;;
4957;SDS011;2494;51.872;9.688;2023-04-06T05:07:28;8.07;;;6.90;;
4957;SDS011;2494;51.872;9.688;2023-04-06T05:10:13;11.07;;;6.27;;
4957;SDS011;2494;51.872;9.688;2023-04-06T05:12:58;6.03;;;5.53;;
4957;SDS011;2494;51.872;9.688;2023-04-06T05:15:45;9.80;;;6.30;;
4957;SDS011;2494;51.872;9.688;2023-04-06T05:18:30;6.70;;;6.10;;
4957;SDS011;2494;51.872;9.688;2023-04-06T05:21:15;8.17;;;7.10;;
4957;SDS011;2494;51.872;9.688;2023-04-06T05:24:00;7.37;;;6.13;;
4957;SDS011;2494;51.872;9.688;2023-04-06T05:26:46;7.50;;;6.80;;
4957;SDS011;2494;51.872;9.688;2023-04-06T05:29:31;13.20;;;7.83;;
4957;SDS011;2494;51.872;9.688;2023-04-06T05:32:17;7.53;;;6.80;;
4957;SDS011;2494;51.872;9.688;2023-04-06T05:35:05;7.10;;;6.43;;
4957;SDS011;2494;51.872;9.688;2023-04-06T05:37:50;7.07;;;6.47;;
4957;SDS011;2494;51.872;9.688;2023-04-06T05:40:36;7.53;;;6.83;;
4957;SDS011;2494;51.872;9.688;2023-04-06T05:43:21;9.23;;;7.20;;
4957;SDS011;2494;51.872;9.688;2023-04-06T05:46:06;7.83;;;6.90;;
4957;SDS011;2494;51.872;9.688;2023-04-06T05:48:53;8.10;;;6.43;;
4957;SDS011;2494;51.872;9.688;2023-04-06T05:51:38;11.40;;;7.00;;
4957;SDS011;2494;51.872;9.688;2023-04-06T05:54:23;7.63;;;7.00;;
4957;SDS011;2494;51.872;9.688;2023-04-06T05:57:08;7.57;;;6.87;;
4957;SDS011;2494;51.872;9.688;2023-04-06T05:59:52;7.73;;;6.23;;
4957;SDS011;2494;51.872;9.688;2023-04-06T06:02:38;7.23;;;6.47;;
4957;SDS011;2494;51.872;9.688;2023-04-06T06:05:27;10.00;;;6.50;;
4957;SDS011;2494;51.872;9.688;2023-04-06T06:08:13;6.93;;;6.33;;
4957;SDS011;2494;51.872;9.688;2023-04-06T06:10:58;5.53;;;5.13;;
4957;SDS011;2494;51.872;9.688;2023-04-06T06:13:43;7.37;;;5.50;;
4957;SDS011;2494;51.872;9.688;2023-04-06T06:16:28;6.73;;;6.23;;
4957;SDS011;2494;51.872;9.688;2023-04-06T06:19:13;7.60;;;5.37;;
4957;SDS011;2494;51.872;9.688;2023-04-06T06:21:59;7.00;;;5.50;;
4957;SDS011;2494;51.872;9.688;2023-04-06T06:24:46;9.73;;;5.77;;
4957;SDS011;2494;51.872;9.688;2023-04-06T06:27:31;10.90;;;5.77;;
4957;SDS011;2494;51.872;9.688;2023-04-06T06:30:16;6.43;;;5.93;;
4957;SDS011;2494;51.872;9.688;2023-04-06T06:33:01;6.10;;;5.60;;
4957;SDS011;2494;51.872;9.688;2023-04-06T06:35:46;6.27;;;5.90;;
4957;SDS011;2494;51.872;9.688;2023-04-06T06:38:33;6.40;;;5.90;;
4957;SDS011;2494;51.872;9.688;2023-04-06T06:41:18;6.20;;;5.70;;
4957;SDS011;2494;51.872;9.688;2023-04-06T06:44:03;6.47;;;6.00;;
4957;SDS011;2494;51.872;9.688;2023-04-06T06:46:48;6.40;;;5.90;;
4957;SDS011;2494;51.872;9.688;2023-04-06T06:49:33;6.30;;;5.70;;
4957;SDS011;2494;51.872;9.688;2023-04-06T06:52:18;6.93;;;6.33;;
4957;SDS011;2494;51.872;9.688;2023-04-06T06:55:06;8.33;;;7.53;;
4957;SDS011;2494;51.872;9.688;2023-04-06T06:57:51;6.57;;;6.07;;
4957;SDS011;2494;51.872;9.688;2023-04-06T07:00:36;6.70;;;6.20;;
4957;SDS011;2494;51.872;9.688;2023-04-06T07:03:21;6.33;;;5.83;;
4957;SDS011;2494;51.872;9.688;2023-04-06T07:06:06;7.50;;;6.90;;
4957;SDS011;2494;51.872;9.688;2023-04-06T07:08:51;8.67;;;6.60;;
4957;SDS011;2494;51.872;9.688;2023-04-06T07:11:37;6.93;;;6.37;;
4957;SDS011;2494;51.872;9.688;2023-04-06T07:14:22;7.40;;;6.90;;
4957;SDS011;2494;51.872;9.688;2023-04-06T07:17:07;7.37;;;6.80;;
4957;SDS011;2494;51.872;9.688;2023-04-06T07:19:53;7.50;;;6.40;;
4957;SDS011;2494;51.872;9.688;2023-04-06T07:22:38;8.40;;;7.50;;
4957;SDS011;2494;51.872;9.688;2023-04-06T07:25:23;8.30;;;7.60;;
4957;SDS011;2494;51.872;9.688;2023-04-06T07:28:10;8.40;;;6.93;;
4957;SDS011;2494;51.872;9.688;2023-04-06T07:30:55;7.27;;;6.57;;
4957;SDS011;2494;51.872;9.688;2023-04-06T07:33:40;7.80;;;7.00;;
4957;SDS011;2494;51.872;9.688;2023-04-06T07:36:25;7.97;;;7.40;;
4957;SDS011;2494;51.872;9.688;2023-04-06T07:39:10;9.00;;;8.13;;
4957;SDS011;2494;51.872;9.688;2023-04-06T07:41:54;8.70;;;7.77;;
4957;SDS011;2494;51.872;9.688;2023-04-06T07:44:41;9.00;;;7.57;;
4957;SDS011;2494;51.872;9.688;2023-04-06T07:47:26;9.73;;;7.43;;
4957;SDS011;2494;51.872;9.688;2023-04-06T07:50:11;7.57;;;7.07;;
4957;SDS011;2494;51.872;9.688;2023-04-06T07:52:56;8.63;;;7.73;;
4957;SDS011;2494;51.872;9.688;2023-04-06T07:55:41;9.33;;;8.57;;
4957;SDS011;2494;51.872;9.688;2023-04-06T07:58:26;8.93;;;8.23;;
4957;SDS011;2494;51.872;9.688;2023-04-06T08:01:12;9.07;;;8.17;;
4957;SDS011;2494;51.872;9.688;2023-04-06T08:03:58;9.53;;;8.63;;
4957;SDS011;2494;51.872;9.688;2023-04-06T08:06:45;8.13;;;7.57;;
4957;SDS011;2494;51.872;9.688;2023-04-06T08:09:30;9.23;;;8.30;;
4957;SDS011;2494;51.872;9.688;2023-04-06T08:12:16;8.60;;;7.70;;
4957;SDS011;2494;51.872;9.688;2023-04-06T08:15:03;8.93;;;8.20;;
4957;SDS011;2494;51.872;9.688;2023-04-06T08:17:51;9.00;;;8.20;;
4957;SDS011;2494;51.872;9.688;2023-04-06T08:20:37;8.47;;;7.77;;
4957;SDS011;2494;51.872;9.688;2023-04-06T08:23:23;8.30;;;7.70;;
4957;SDS011;2494;51.872;9.688;2023-04-06T08:26:08;8.60;;;8.00;;
4957;SDS011;2494;51.872;9.688;2023-04-06T08:28:54;10.40;;;8.40;;
4957;SDS011;2494;51.872;9.688;2023-04-06T08:31:39;9.57;;;8.30;;
4957;SDS011;2494;51.872;9.688;2023-04-06T08:34:25;8.70;;;8.00;;
4957;SDS011;2494;51.872;9.688;2023-04-06T08:37:10;8.70;;;8.00;;
4957;SDS011;2494;51.872;9.688;2023-04-06T08:39:55;8.67;;;7.90;;
4957;SDS011;2494;51.872;9.688;2023-04-06T08:42:40;8.00;;;7.57;;
4957;SDS011;2494;51.872;9.688;2023-04-06T08:45:29;9.00;;;8.20;;
4957;SDS011;2494;51.872;9.688;2023-04-06T08:48:14;9.13;;;8.43;;
4957;SDS011;2494;51.872;9.688;2023-04-06T08:51:00;9.30;;;8.50;;
4957;SDS011;2494;51.872;9.688;2023-04-06T08:53:46;8.70;;;7.40;;
4957;SDS011;2494;51.872;9.688;2023-04-06T08:56:32;8.77;;;8.07;;
4957;SDS011;2494;51.872;9.688;2023-04-06T08:59:17;9.00;;;8.20;;
4957;SDS011;2494;51.872;9.688;2023-04-06T09:02:03;8.90;;;8.13;;
4957;SDS011;2494;51.872;9.688;2023-04-06T09:04:49;8.87;;;8.07;;
4957;SDS011;2494;51.872;9.688;2023-04-06T09:07:38;8.93;;;8.10;;
4957;SDS011;2494;51.872;9.688;2023-04-06T09:10:23;8.83;;;8.03;;
4957;SDS011;2494;51.872;9.688;2023-04-06T09:13:09;9.60;;;8.60;;
4957;SDS011;2494;51.872;9.688;2023-04-06T09:16:03;10.83;;;8.30;;
4957;SDS011;2494;51.872;9.688;2023-04-06T09:18:50;8.47;;;7.57;;
4957;SDS011;2494;51.872;9.688;2023-04-06T09:21:35;8.33;;;7.63;;
4957;SDS011;2494;51.872;9.688;2023-04-06T09:24:23;8.40;;;7.60;;
4957;SDS011;2494;51.872;9.688;2023-04-06T09:27:09;8.53;;;7.33;;
4957;SDS011;2494;51.872;9.688;2023-04-06T09:30:01;9.30;;;7.80;;
4957;SDS011;2494;51.872;9.688;2023-04-06T09:32:47;9.67;;;8.60;;
4957;SDS011;2494;51.872;9.688;2023-04-06T09:35:32;8.67;;;7.63;;
4957;SDS011;2494;51.872;9.688;2023-04-06T09:38:18;9.17;;;8.37;;
4957;SDS011;2494;51.872;9.688;2023-04-06T09:41:04;9.33;;;8.53;;
4957;SDS011;2494;51.872;9.688;2023-04-06T09:43:49;9.37;;;8.50;;
4957;SDS011;2494;51.872;9.688;2023-04-06T09:46:35;8.40;;;7.80;;
4957;SDS011;2494;51.872;9.688;2023-04-06T09:49:20;8.50;;;7.83;;
4957;SDS011;2494;51.872;9.688;2023-04-06T09:52:07;10.07;;;9.03;;
4957;SDS011;2494;51.872;9.688;2023-04-06T09:54:55;8.93;;;7.90;;
4957;SDS011;2494;51.872;9.688;2023-04-06T09:57:46;9.40;;;8.63;;
4957;SDS011;2494;51.872;9.688;2023-04-06T10:00:35;9.03;;;8.23;;
4957;SDS011;2494;51.872;9.688;2023-04-06T10:03:26;8.37;;;7.67;;
4957;SDS011;2494;51.872;9.688;2023-04-06T10:06:14;9.57;;;8.80;;
4957;SDS011;2494;51.872;9.688;2023-04-06T10:09:01;8.60;;;7.80;;
4957;SDS011;2494;51.872;9.688;2023-04-06T10:11:47;8.97;;;8.27;;
4957;SDS011;2494;51.872;9.688;2023-04-06T10:14:34;9.47;;;8.57;;
4957;SDS011;2494;51.872;9.688;2023-04-06T10:17:20;10.00;;;8.57;;
4957;SDS011;2494;51.872;9.688;2023-04-06T10:20:09;8.47;;;7.70;;
4957;SDS011;2494;51.872;9.688;2023-04-06T10:22:57;8.57;;;7.80;;
4957;SDS011;2494;51.872;9.688;2023-04-06T10:25:51;9.47;;;8.20;;
4957;SDS011;2494;51.872;9.688;2023-04-06T10:28:37;9.47;;;8.67;;
4957;SDS011;2494;51.872;9.688;2023-04-06T10:31:26;8.33;;;7.53;;
4957;SDS011;2494;51.872;9.688;2023-04-06T10:34:11;11.37;;;8.00;;
4957;SDS011;2494;51.872;9.688;2023-04-06T10:36:58;8.70;;;7.93;;
4957;SDS011;2494;51.872;9.688;2023-04-06T10:39:47;9.20;;;8.27;;
4957;SDS011;2494;51.872;9.688;2023-04-06T10:42:36;8.73;;;8.00;;
4957;SDS011;2494;51.872;9.688;2023-04-06T10:45:22;10.20;;;9.27;;
4957;SDS011;2494;51.872;9.688;2023-04-06T10:48:15;9.50;;;8.50;;
4957;SDS011;2494;51.872;9.688;2023-04-06T10:51:01;9.40;;;8.50;;
4957;SDS011;2494;51.872;9.688;2023-04-06T10:53:46;8.90;;;8.20;;
4957;SDS011;2494;51.872;9.688;2023-04-06T10:56:32;8.90;;;8.17;;
4957;SDS011;2494;51.872;9.688;2023-04-06T10:59:19;12.73;;;8.93;;
4957;SDS011;2494;51.872;9.688;2023-04-06T11:02:05;9.60;;;8.40;;
4957;SDS011;2494;51.872;9.688;2023-04-06T11:04:55;8.80;;;7.90;;
4957;SDS011;2494;51.872;9.688;2023-04-06T11:07:41;9.83;;;8.93;;
4957;SDS011;2494;51.872;9.688;2023-04-06T11:10:26;9.17;;;8.27;;
4957;SDS011;2494;51.872;9.688;2023-04-06T11:13:13;9.03;;;7.80;;
4957;SDS011;2494;51.872;9.688;2023-04-06T11:15:58;8.43;;;7.83;;
4957;SDS011;2494;51.872;9.688;2023-04-06T11:18:47;8.87;;;7.97;;
4957;SDS011;2494;51.872;9.688;2023-04-06T11:21:34;9.90;;;8.90;;
4957;SDS011;2494;51.872;9.688;2023-04-06T11:24:20;8.37;;;7.67;;
4957;SDS011;2494;51.872;9.688;2023-04-06T11:27:06;11.83;;;8.03;;
4957;SDS011;2494;51.872;9.688;2023-04-06T11:29:51;9.53;;;8.17;;
4957;SDS011;2494;51.872;9.688;2023-04-06T11:32:39;8.50;;;7.80;;
4957;SDS011;2494;51.872;9.688;2023-04-06T11:35:25;11.80;;;8.00;;
4957;SDS011;2494;51.872;9.688;2023-04-06T11:38:11;8.13;;;7.43;;
4957;SDS011;2494;51.872;9.688;2023-04-06T11:40:57;8.57;;;7.77;;
4957;SDS011;2494;51.872;9.688;2023-04-06T11:43:45;9.30;;;8.57;;
4957;SDS011;2494;51.872;9.688;2023-04-06T11:46:31;9.57;;;8.67;;
4957;SDS011;2494;51.872;9.688;2023-04-06T11:49:16;8.90;;;8.00;;
4957;SDS011;2494;51.872;9.688;2023-04-06T11:52:02;8.70;;;7.90;;
4957;SDS011;2494;51.872;9.688;2023-04-06T11:54:49;9.03;;;8.23;;
4957;SDS011;2494;51.872;9.688;2023-04-06T11:57:35;9.83;;;8.57;;
4957;SDS011;2494;51.872;9.688;2023-04-06T12:00:20;9.40;;;8.57;;
4957;SDS011;2494;51.872;9.688;2023-04-06T12:03:05;9.20;;;8.30;;
4957;SDS011;2494;51.872;9.688;2023-04-06T12:05:50;11.50;;;8.30;;
4957;SDS011;2494;51.872;9.688;2023-04-06T12:08:35;9.87;;;7.97;;
4957;SDS011;2494;51.872;9.688;2023-04-06T12:11:22;9.60;;;8.47;;
4957;SDS011;2494;51.872;9.688;2023-04-06T12:14:07;8.80;;;8.00;;
4957;SDS011;2494;51.872;9.688;2023-04-06T12:16:52;7.57;;;6.87;;
4957;SDS011;2494;51.872;9.688;2023-04-06T12:19:37;9.27;;;8.40;;
4957;SDS011;2494;51.872;9.688;2023-04-06T12:22:22;9.40;;;8.60;;
4957;SDS011;2494;51.872;9.688;2023-04-06T12:25:08;10.43;;;8.27;;
4957;SDS011;2494;51.872;9.688;2023-04-06T12:27:54;9.07;;;8.00;;
4957;SDS011;2494;51.872;9.688;2023-04-06T12:30:40;8.50;;;7.73;;
4957;SDS011;2494;51.872;9.688;2023-04-06T12:33:25;8.47;;;7.67;;
4957;SDS011;2494;51.872;9.688;2023-04-06T12:36:11;8.67;;;7.77;;
4957;SDS011;2494;51.872;9.688;2023-04-06T12:38:56;6.50;;;6.00;;
4957;SDS011;2494;51.872;9.688;2023-04-06T12:41:41;7.67;;;6.60;;
4957;SDS011;2494;51.872;9.688;2023-04-06T12:44:27;8.93;;;7.77;;
4957;SDS011;2494;51.872;9.688;2023-04-06T12:47:12;9.77;;;8.83;;
4957;SDS011;2494;51.872;9.688;2023-04-06T12:49:57;8.27;;;7.47;;
4957;SDS011;2494;51.872;9.688;2023-04-06T12:52:42;7.97;;;7.33;;
4957;SDS011;2494;51.872;9.688;2023-04-06T12:55:29;7.13;;;6.50;;
4957;SDS011;2494;51.872;9.688;2023-04-06T12:58:15;7.07;;;6.50;;
4957;SDS011;2494;51.872;9.688;2023-04-06T13:01:05;7.27;;;6.67;;
4957;SDS011;2494;51.872;9.688;2023-04-06T13:03:50;9.40;;;7.20;;
4957;SDS011;2494;51.872;9.688;2023-04-06T13:06:35;8.30;;;6.87;;
4957;SDS011;2494;51.872;9.688;2023-04-06T13:09:20;7.33;;;6.70;;
4957;SDS011;2494;51.872;9.688;2023-04-06T13:12:05;7.80;;;7.10;;
4957;SDS011;2494;51.872;9.688;2023-04-06T13:14:50;7.53;;;6.83;;
4957;SDS011;2494;51.872;9.688;2023-04-06T13:17:37;6.67;;;6.07;;
4957;SDS011;2494;51.872;9.688;2023-04-06T13:20:22;8.43;;;6.90;;
4957;SDS011;2494;51.872;9.688;2023-04-06T13:23:08;8.00;;;7.20;;
4957;SDS011;2494;51.872;9.688;2023-04-06T13:25:57;11.70;;;6.67;;
4957;SDS011;2494;51.872;9.688;2023-04-06T13:28:42;8.80;;;6.20;;
4957;SDS011;2494;51.872;9.688;2023-04-06T13:31:27;9.37;;;7.40;;
4957;SDS011;2494;51.872;9.688;2023-04-06T13:34:13;8.03;;;7.20;;
4957;SDS011;2494;51.872;9.688;2023-04-06T13:36:59;8.90;;;8.10;;
4957;SDS011;2494;51.872;9.688;2023-04-06T13:39:44;7.80;;;7.03;;
4957;SDS011;2494;51.872;9.688;2023-04-06T13:42:29;8.90;;;8.10;;
4957;SDS011;2494;51.872;9.688;2023-04-06T13:45:14;9.10;;;8.30;;
4957;SDS011;2494;51.872;9.688;2023-04-06T13:47:59;9.73;;;8.40;;
4957;SDS011;2494;51.872;9.688;2023-04-06T13:50:46;10.70;;;9.67;;
4957;SDS011;2494;51.872;9.688;2023-04-06T13:53:31;9.70;;;8.60;;
4957;SDS011;2494;51.872;9.688;2023-04-06T13:56:16;10.30;;;9.27;;
4957;SDS011;2494;51.872;9.688;2023-04-06T13:59:02;10.37;;;9.37;;
4957;SDS011;2494;51.872;9.688;2023-04-06T14:01:48;9.97;;;8.97;;
4957;SDS011;2494;51.872;9.688;2023-04-06T14:04:32;10.40;;;8.00;;
4957;SDS011;2494;51.872;9.688;2023-04-06T14:07:20;9.07;;;8.17;;
4957;SDS011;2494;51.872;9.688;2023-04-06T14:10:06;9.80;;;8.80;;
4957;SDS011;2494;51.872;9.688;2023-04-06T14:12:57;9.73;;;8.80;;
4957;SDS011;2494;51.872;9.688;2023-04-06T14:15:43;9.43;;;8.47;;
4957;SDS011;2494;51.872;9.688;2023-04-06T14:18:27;9.73;;;8.73;;
4957;SDS011;2494;51.872;9.688;2023-04-06T14:21:14;10.77;;;9.77;;
4957;SDS011;2494;51.872;9.688;2023-04-06T14:24:01;10.30;;;9.33;;
4957;SDS011;2494;51.872;9.688;2023-04-06T14:26:46;8.97;;;8.20;;
4957;SDS011;2494;51.872;9.688;2023-04-06T14:29:31;10.17;;;9.17;;
4957;SDS011;2494;51.872;9.688;2023-04-06T14:32:16;9.90;;;8.47;;
4957;SDS011;2494;51.872;9.688;2023-04-06T14:35:02;10.43;;;9.17;;
4957;SDS011;2494;51.872;9.688;2023-04-06T14:37:47;10.43;;;8.93;;
4957;SDS011;2494;51.872;9.688;2023-04-06T14:40:35;9.50;;;8.60;;
4957;SDS011;2494;51.872;9.688;2023-04-06T14:43:20;10.33;;;9.33;;
4957;SDS011;2494;51.872;9.688;2023-04-06T14:46:06;9.93;;;8.93;;
4957;SDS011;2494;51.872;9.688;2023-04-06T14:48:52;8.60;;;7.87;;
4957;SDS011;2494;51.872;9.688;2023-04-06T14:51:38;9.30;;;8.40;;
4957;SDS011;2494;51.872;9.688;2023-04-06T14:54:23;8.27;;;7.57;;
4957;SDS011;2494;51.872;9.688;2023-04-06T14:57:10;9.03;;;8.23;;
4957;SDS011;2494;51.872;9.688;2023-04-06T14:59:55;8.90;;;8.00;;
4957;SDS011;2494;51.872;9.688;2023-04-06T15:02:40;9.30;;;8.50;;
4957;SDS011;2494;51.872;9.688;2023-04-06T15:05:26;8.83;;;7.93;;
4957;SDS011;2494;51.872;9.688;2023-04-06T15:08:11;9.67;;;8.67;;
4957;SDS011;2494;51.872;9.688;2023-04-06T15:10:58;8.00;;;7.30;;
4957;SDS011;2494;51.872;9.688;2023-04-06T15:13:45;8.63;;;7.83;;
4957;SDS011;2494;51.872;9.688;2023-04-06T15:16:30;9.20;;;8.10;;
4957;SDS011;2494;51.872;9.688;2023-04-06T15:19:16;10.27;;;7.90;;
4957;SDS011;2494;51.872;9.688;2023-04-06T15:22:01;11.50;;;8.27;;
4957;SDS011;2494;51.872;9.688;2023-04-06T15:24:46;9.20;;;8.33;;
4957;SDS011;2494;51.872;9.688;2023-04-06T15:27:30;8.00;;;7.30;;
4957;SDS011;2494;51.872;9.688;2023-04-06T15:30:17;7.90;;;7.10;;
4957;SDS011;2494;51.872;9.688;2023-04-06T15:33:03;7.13;;;6.63;;
4957;SDS011;2494;51.872;9.688;2023-04-06T15:35:49;9.03;;;8.17;;
4957;SDS011;2494;51.872;9.688;2023-04-06T15:38:34;7.37;;;6.70;;
4957;SDS011;2494;51.872;9.688;2023-04-06T15:41:19;6.43;;;5.93;;
4957;SDS011;2494;51.872;9.688;2023-04-06T15:44:05;8.80;;;7.63;;
4957;SDS011;2494;51.872;9.688;2023-04-06T15:46:52;9.77;;;7.10;;
4957;SDS011;2494;51.872;9.688;2023-04-06T15:49:37;9.83;;;6.63;;
4957;SDS011;2494;51.872;9.688;2023-04-06T15:52:21;8.23;;;7.53;;
4957;SDS011;2494;51.872;9.688;2023-04-06T15:55:07;10.40;;;7.47;;
4957;SDS011;2494;51.872;9.688;2023-04-06T15:57:52;7.63;;;6.93;;
4957;SDS011;2494;51.872;9.688;2023-04-06T16:00:37;7.80;;;6.90;;
4957;SDS011;2494;51.872;9.688;2023-04-06T16:03:24;7.40;;;6.80;;
4957;SDS011;2494;51.872;9.688;2023-04-06T16:06:09;9.40;;;7.50;;
4957;SDS011;2494;51.872;9.688;2023-04-06T16:08:54;6.87;;;6.27;;
4957;SDS011;2494;51.872;9.688;2023-04-06T16:11:39;6.63;;;6.00;;
4957;SDS011;2494;51.872;9.688;2023-04-06T16:14:24;6.40;;;5.90;;
4957;SDS011;2494;51.872;9.688;2023-04-06T16:17:10;7.10;;;6.10;;
4957;SDS011;2494;51.872;9.688;2023-04-06T16:19:56;7.13;;;6.50;;
4957;SDS011;2494;51.872;9.688;2023-04-06T16:22:41;8.30;;;6.97;;
4957;SDS011;2494;51.872;9.688;2023-04-06T16:25:26;7.33;;;6.13;;
4957;SDS011;2494;51.872;9.688;2023-04-06T16:28:11;7.00;;;6.40;;
4957;SDS011;2494;51.872;9.688;2023-04-06T16:30:56;12.63;;;7.37;;
4957;SDS011;2494;51.872;9.688;2023-04-06T16:33:41;8.57;;;7.67;;
4957;SDS011;2494;51.872;9.688;2023-04-06T16:36:28;8.70;;;7.80;;
4957;SDS011;2494;51.872;9.688;2023-04-06T16:39:14;7.40;;;6.70;;
4957;SDS011;2494;51.872;9.688;2023-04-06T16:41:59;7.43;;;6.70;;
4957;SDS011;2494;51.872;9.688;2023-04-06T16:44:44;6.93;;;6.40;;
4957;SDS011;2494;51.872;9.688;2023-04-06T16:47:31;6.53;;;5.93;;
4957;SDS011;2494;51.872;9.688;2023-04-06T16:50:16;8.47;;;7.63;;
4957;SDS011;2494;51.872;9.688;2023-04-06T16:53:03;7.47;;;6.77;;
4957;SDS011;2494;51.872;9.688;2023-04-06T16:55:48;7.70;;;7.00;;
4957;SDS011;2494;51.872;9.688;2023-04-06T16:58:33;7.00;;;6.40;;
4957;SDS011;2494;51.872;9.688;2023-04-06T17:01:19;7.80;;;7.10;;
4957;SDS011;2494;51.872;9.688;2023-04-06T17:04:04;8.67;;;7.87;;
4957;SDS011;2494;51.872;9.688;2023-04-06T17:06:49;7.93;;;7.33;;
4957;SDS011;2494;51.872;9.688;2023-04-06T17:09:35;9.00;;;8.10;;